Time;durP1;ratioP1;P1;durP2;ratioP2;P2;SDS_P1;SDS_P2;PMS_P1;PMS_P2;Temp;Humidity;BMP_temperature;BMP_pressure;BME280_temperature;BME280_humidity;BME280_pressure;Samples;Min_cycle;Max_cycle;Signal;HPM_P1;HPM_P2
2021/07/08 00:01:58;;;;;;;13.80;6.80;;;18.80;39.90;;;;;;5077625;28;20198;-80
2021/07/08 00:04:24;;;;;;;10.87;6.47;;;18.80;39.00;;;;;;5076623;28;20651;-77
2021/07/08 00:06:50;;;;;;;11.87;6.77;;;18.90;35.10;;;;;;5075609;28;20265;-81
2021/07/08 00:09:16;;;;;;;10.40;6.70;;;19.00;32.20;;;;;;5075730;28;20172;-80
2021/07/08 00:11:42;;;;;;;11.23;6.60;;;19.00;31.50;;;;;;5076385;28;20219;-79
2021/07/08 00:14:08;;;;;;;13.73;6.63;;;19.00;34.30;;;;;;5075744;28;20200;-79
2021/07/08 00:16:35;;;;;;;11.37;6.70;;;18.90;32.70;;;;;;5078173;28;20180;-79
2021/07/08 00:19:01;;;;;;;9.70;6.60;;;18.90;34.20;;;;;;5096583;28;20220;-79
2021/07/08 00:21:29;;;;;;;13.17;6.87;;;18.80;33.80;;;;;;5079799;28;20244;-77
2021/07/08 00:23:56;;;;;;;10.10;6.57;;;18.80;34.70;;;;;;5086913;28;20141;-75
2021/07/08 00:26:22;;;;;;;11.67;6.07;;;18.90;32.00;;;;;;5095738;28;20211;-76
2021/07/08 00:28:47;;;;;;;10.23;6.40;;;19.00;30.30;;;;;;5093398;28;20232;-79
2021/07/08 00:31:13;;;;;;;13.20;6.23;;;19.00;29.60;;;;;;5075634;28;20507;-79
2021/07/08 00:33:39;;;;;;;10.10;5.97;;;19.10;28.00;;;;;;5075414;28;20188;-77
2021/07/08 00:36:05;;;;;;;9.03;5.97;;;19.10;25.20;;;;;;5075447;28;20179;-79
2021/07/08 00:38:31;;;;;;;10.07;6.27;;;19.00;25.10;;;;;;5076594;28;20816;-78
2021/07/08 00:40:57;;;;;;;11.50;5.80;;;18.90;27.30;;;;;;5075193;28;20161;-79
2021/07/08 00:43:27;;;;;;;11.27;5.83;;;18.80;27.80;;;;;;5075270;28;20643;-79
2021/07/08 00:45:53;;;;;;;8.53;5.70;;;18.80;27.00;;;;;;5074971;28;20204;-78
2021/07/08 00:48:19;;;;;;;11.20;5.90;;;18.70;27.80;;;;;;5074711;28;20176;-74
2021/07/08 00:50:48;;;;;;;11.40;6.10;;;18.80;27.00;;;;;;5073307;28;20172;-77
2021/07/08 00:53:16;;;;;;;9.77;5.70;;;18.80;27.80;;;;;;5073184;28;20169;-78
2021/07/08 00:55:45;;;;;;;14.30;5.80;;;19.00;25.50;;;;;;5074445;28;20234;-78
2021/07/08 00:58:14;;;;;;;10.50;6.20;;;19.00;23.30;;;;;;5087111;28;20225;-76
2021/07/08 01:00:39;;;;;;;9.60;5.73;;;18.90;21.20;;;;;;5090803;28;20172;-74
2021/07/08 01:03:10;;;;;;;9.87;6.23;;;18.90;23.30;;;;;;5091045;28;20206;-74
2021/07/08 01:05:41;;;;;;;10.90;6.53;;;19.00;22.60;;;;;;5077754;28;20239;-77
2021/07/08 01:08:09;;;;;;;9.00;5.97;;;19.10;21.30;;;;;;5072504;28;20180;-75
2021/07/08 01:10:34;;;;;;;13.17;6.40;;;19.10;20.20;;;;;;5073581;28;20169;-79
2021/07/08 01:13:01;;;;;;;10.73;6.17;;;19.10;20.90;;;;;;5074044;28;20170;-78
2021/07/08 01:15:27;;;;;;;13.47;6.00;;;19.20;19.40;;;;;;5074261;28;20180;-75
2021/07/08 01:17:54;;;;;;;9.63;6.23;;;18.90;23.20;;;;;;5075161;28;20168;-76
2021/07/08 01:20:22;;;;;;;9.10;5.93;;;18.70;27.00;;;;;;5074303;28;20172;-77
2021/07/08 01:22:48;;;;;;;12.40;6.43;;;18.80;27.20;;;;;;5073846;28;20223;-76
2021/07/08 01:25:15;;;;;;;11.40;6.40;;;18.60;28.50;;;;;;5072419;28;20200;-78
2021/07/08 01:27:42;;;;;;;8.53;6.00;;;18.80;27.50;;;;;;5073840;28;20168;-75
2021/07/08 01:30:12;;;;;;;12.87;6.27;;;18.90;26.70;;;;;;5074246;28;20680;-79
2021/07/08 01:32:38;;;;;;;10.97;6.37;;;18.90;25.30;;;;;;5073807;28;20168;-77
2021/07/08 01:35:06;;;;;;;11.27;6.30;;;19.00;22.50;;;;;;5072558;28;20601;-79
2021/07/08 01:37:32;;;;;;;12.50;6.10;;;19.00;21.30;;;;;;5073852;28;20160;-78
2021/07/08 01:40:00;;;;;;;14.23;6.33;;;19.00;19.50;;;;;;5073480;28;20589;-78
2021/07/08 01:42:27;;;;;;;10.40;6.13;;;19.00;20.10;;;;;;5073488;28;20213;-75
2021/07/08 01:44:53;;;;;;;9.37;6.23;;;18.90;21.20;;;;;;5073640;28;20178;-76
2021/07/08 01:47:19;;;;;;;9.60;5.67;;;19.00;20.60;;;;;;5074821;28;20172;-77
2021/07/08 01:49:44;;;;;;;9.57;5.83;;;19.00;19.00;;;;;;5078488;28;20179;-77
2021/07/08 01:52:10;;;;;;;9.57;6.03;;;19.00;16.90;;;;;;5078959;28;20173;-75
2021/07/08 01:54:36;;;;;;;10.13;5.80;;;19.10;16.20;;;;;;5083171;28;20222;-74
2021/07/08 01:57:02;;;;;;;11.17;5.57;;;19.20;15.00;;;;;;5085265;28;20169;-79
2021/07/08 01:59:27;;;;;;;11.90;6.33;;;19.20;13.40;;;;;;5086582;28;20243;-81
2021/07/08 02:01:53;;;;;;;14.00;5.60;;;19.30;12.60;;;;;;5087834;28;20161;-75
2021/07/08 02:04:19;;;;;;;10.83;5.60;;;19.20;11.20;;;;;;5095335;28;20220;-79
2021/07/08 02:06:45;;;;;;;11.00;5.10;;;19.40;8.30;;;;;;5091519;28;20212;-77
2021/07/08 02:09:11;;;;;;;11.00;5.67;;;19.40;6.00;;;;;;5088304;28;20166;-75
2021/07/08 02:11:37;;;;;;;9.50;5.37;;;19.60;3.40;;;;;;5089976;28;20225;-77
2021/07/08 02:14:03;;;;;;;9.47;5.73;;;19.50;2.20;;;;;;5084335;28;20157;-77
2021/07/08 02:16:29;;;;;;;11.03;5.87;;;19.40;2.60;;;;;;5079749;28;20181;-77
2021/07/08 02:18:55;;;;;;;11.57;5.60;;;19.30;6.90;;;;;;5085385;28;20161;-75
2021/07/08 02:21:22;;;;;;;9.07;6.07;;;19.20;9.00;;;;;;5081650;28;20172;-76
2021/07/08 02:23:47;;;;;;;9.40;5.17;;;19.30;5.80;;;;;;5080758;28;20539;-76
2021/07/08 02:26:13;;;;;;;8.33;5.63;;;19.30;7.90;;;;;;5075027;28;20223;-77
2021/07/08 02:28:39;;;;;;;10.00;5.70;;;19.30;6.80;;;;;;5072737;28;20176;-79
2021/07/08 02:31:05;;;;;;;9.63;5.80;;;19.40;2.80;;;;;;5078329;28;20201;-77
2021/07/08 02:33:31;;;;;;;8.33;5.43;;;19.30;2.90;;;;;;5090948;28;20238;-78
2021/07/08 02:35:57;;;;;;;9.80;5.63;;;19.30;1.00;;;;;;5093614;28;20222;-78
2021/07/08 02:38:23;;;;;;;10.73;5.67;;;19.30;1.00;;;;;;5093861;28;20228;-74
2021/07/08 02:40:49;;;;;;;10.70;5.37;;;19.30;1.00;;;;;;5096184;28;20169;-78
2021/07/08 02:43:14;;;;;;;11.30;5.70;;;19.30;1.00;;;;;;5096837;28;20526;-79
2021/07/08 02:45:42;;;;;;;8.67;5.20;;;19.50;1.00;;;;;;5096024;28;20211;-79
2021/07/08 02:48:10;;;;;;;11.00;5.23;;;19.50;1.00;;;;;;5096130;28;20158;-78
2021/07/08 02:50:38;;;;;;;11.33;4.87;;;19.60;1.00;;;;;;5096605;28;20264;-77
2021/07/08 02:53:04;;;;;;;8.43;5.43;;;19.60;1.00;;;;;;5093833;28;20167;-75
2021/07/08 02:55:30;;;;;;;9.57;5.37;;;19.60;1.00;;;;;;5095021;28;20170;-77
2021/07/08 02:57:56;;;;;;;8.30;5.63;;;19.70;1.00;;;;;;5096343;28;20190;-76
2021/07/08 03:00:23;;;;;;;10.10;5.63;;;19.70;1.00;;;;;;5095776;28;20181;-75
2021/07/08 03:02:50;;;;;;;9.00;5.47;;;19.60;1.00;;;;;;5095744;28;20216;-74
2021/07/08 03:05:17;;;;;;;8.57;4.93;;;19.10;1.00;;;;;;5094740;28;20193;-76
2021/07/08 03:07:43;;;;;;;10.07;5.57;;;18.90;5.30;;;;;;5090620;28;20160;-76
2021/07/08 03:10:14;;;;;;;9.30;5.00;;;18.90;5.90;;;;;;5079765;28;20182;-76
2021/07/08 03:12:40;;;;;;;11.17;5.20;;;18.90;1.00;;;;;;5086609;28;20172;-78
2021/07/08 03:15:08;;;;;;;7.47;5.10;;;18.90;2.20;;;;;;5078279;28;20172;-77
2021/07/08 03:17:35;;;;;;;11.73;5.03;;;18.80;3.70;;;;;;5080550;28;20169;-74
2021/07/08 03:20:01;;;;;;;10.03;4.90;;;18.80;1.00;;;;;;5082741;28;20249;-75
2021/07/08 03:22:27;;;;;;;10.93;5.47;;;18.80;1.80;;;;;;5081566;28;20240;-77
2021/07/08 03:24:54;;;;;;;9.37;5.43;;;18.90;2.00;;;;;;5080172;28;20204;-75
2021/07/08 03:27:20;;;;;;;12.47;6.43;;;18.90;8.70;;;;;;5076865;28;20172;-77
2021/07/08 03:29:45;;;;;;;9.63;5.80;;;18.90;14.30;;;;;;5076545;28;20169;-77
2021/07/08 03:32:11;;;;;;;10.60;6.40;;;18.90;19.70;;;;;;5075007;28;20186;-79
2021/07/08 03:34:37;;;;;;;13.13;6.43;;;18.80;23.30;;;;;;5075665;28;20199;-77
2021/07/08 03:37:03;;;;;;;9.97;6.87;;;18.80;23.70;;;;;;5075443;28;20172;-77
2021/07/08 03:39:28;;;;;;;10.67;6.57;;;18.70;25.40;;;;;;5075548;28;20579;-79
2021/07/08 03:41:54;;;;;;;10.53;6.37;;;18.80;24.50;;;;;;5075306;28;20178;-78
2021/07/08 03:44:20;;;;;;;12.60;7.13;;;18.80;27.40;;;;;;5074264;28;20275;-78
2021/07/08 03:46:46;;;;;;;9.27;6.53;;;18.60;27.00;;;;;;5075647;28;20209;-75
2021/07/08 03:49:11;;;;;;;13.60;7.10;;;18.60;29.00;;;;;;5095424;28;20153;-78
2021/07/08 03:51:38;;;;;;;9.80;6.37;;;18.60;29.20;;;;;;5075771;28;20640;-78
2021/07/08 03:54:06;;;;;;;13.37;7.97;;;18.70;28.30;;;;;;5075765;28;20168;-78
2021/07/08 03:56:31;;;;;;;10.83;6.43;;;18.70;27.10;;;;;;5075281;28;20164;-77
2021/07/08 03:58:57;;;;;;;10.17;6.90;;;18.70;26.30;;;;;;5075602;28;20698;-78
2021/07/08 04:01:23;;;;;;;9.13;6.40;;;18.80;25.00;;;;;;5075306;28;20184;-78
2021/07/08 04:03:48;;;;;;;9.90;6.80;;;18.80;23.40;;;;;;5076182;28;20278;-78
2021/07/08 04:06:14;;;;;;;13.93;7.50;;;18.90;23.30;;;;;;5074732;28;20195;-76
2021/07/08 04:08:40;;;;;;;9.77;6.60;;;19.00;22.30;;;;;;5074989;28;20534;-75
2021/07/08 04:11:05;;;;;;;11.73;6.30;;;19.00;22.90;;;;;;5075072;28;20247;-78
2021/07/08 04:13:31;;;;;;;14.03;6.80;;;19.10;24.30;;;;;;5075814;28;20666;-76
2021/07/08 04:15:56;;;;;;;12.07;6.97;;;19.10;25.40;;;;;;5075073;28;20169;-77
2021/07/08 04:18:22;;;;;;;14.03;7.40;;;19.30;18.40;;;;;;5075262;28;20164;-77
2021/07/08 04:20:49;;;;;;;10.53;7.03;;;19.40;15.30;;;;;;5075066;28;20172;-78
2021/07/08 04:23:15;;;;;;;10.60;7.13;;;19.40;15.40;;;;;;5073898;28;20633;-77
2021/07/08 04:25:42;;;;;;;11.07;6.90;;;19.30;21.60;;;;;;5075317;28;20192;-77
2021/07/08 04:28:09;;;;;;;11.30;6.70;;;19.00;28.40;;;;;;5075321;28;20175;-78
2021/07/08 04:30:36;;;;;;;9.37;6.83;;;18.90;33.20;;;;;;5075175;28;20560;-77
2021/07/08 04:33:02;;;;;;;8.20;6.40;;;18.80;37.30;;;;;;5074499;28;20165;-78
2021/07/08 04:35:38;;;;;;;11.10;7.03;;;18.70;39.90;;;;;;5074499;28;20184;-76
2021/07/08 04:38:06;;;;;;;13.00;6.90;;;18.80;40.90;;;;;;5074193;28;20181;-78
2021/07/08 04:40:32;;;;;;;9.20;6.70;;;18.90;41.70;;;;;;5074449;28;20528;-76
2021/07/08 04:42:58;;;;;;;9.53;7.20;;;18.90;39.30;;;;;;5074222;28;20183;-79
2021/07/08 04:45:24;;;;;;;10.77;6.00;;;18.80;39.50;;;;;;5074176;28;20204;-78
2021/07/08 04:47:50;;;;;;;10.50;6.37;;;18.90;39.20;;;;;;5074220;28;20626;-76
2021/07/08 04:50:19;;;;;;;10.07;6.63;;;19.10;34.70;;;;;;5074383;28;20213;-78
2021/07/08 04:52:46;;;;;;;8.77;6.43;;;19.20;33.20;;;;;;5073984;28;20255;-79
2021/07/08 04:55:13;;;;;;;13.53;6.97;;;19.30;29.90;;;;;;5073734;28;20843;-78
2021/07/08 04:57:39;;;;;;;8.53;6.40;;;19.10;32.70;;;;;;5074295;28;20174;-78
2021/07/08 05:00:08;;;;;;;9.23;6.83;;;19.10;32.90;;;;;;5073967;28;20219;-77
2021/07/08 05:02:37;;;;;;;11.83;7.20;;;19.30;29.00;;;;;;5073150;28;20165;-75
2021/07/08 05:05:04;;;;;;;11.63;7.10;;;19.40;24.90;;;;;;5074008;28;20169;-78
2021/07/08 05:07:29;;;;;;;10.47;6.80;;;19.50;22.00;;;;;;5073936;28;20176;-78
2021/07/08 05:09:55;;;;;;;9.60;7.70;;;19.50;21.80;;;;;;5073840;28;20173;-79
2021/07/08 05:12:20;;;;;;;12.37;7.90;;;19.60;19.20;;;;;;5072299;28;20241;-77
2021/07/08 05:14:47;;;;;;;12.60;7.50;;;19.70;18.00;;;;;;5073829;28;20174;-78
2021/07/08 05:17:12;;;;;;;9.57;7.23;;;19.60;18.70;;;;;;5074026;28;20168;-74
2021/07/08 05:19:38;;;;;;;11.50;7.70;;;19.60;20.50;;;;;;5088961;28;20558;-76
2021/07/08 05:22:05;;;;;;;11.27;7.97;;;19.60;20.30;;;;;;5092377;28;20211;-78
2021/07/08 05:24:32;;;;;;;10.67;7.57;;;19.60;19.90;;;;;;5076751;28;20179;-78
2021/07/08 05:26:58;;;;;;;12.73;8.40;;;19.80;18.00;;;;;;5074430;28;20205;-75
2021/07/08 05:29:25;;;;;;;12.80;8.00;;;19.90;13.10;;;;;;5073691;28;20173;-77
2021/07/08 05:31:52;;;;;;;11.33;8.73;;;19.90;12.40;;;;;;5077635;28;20177;-75
2021/07/08 05:34:18;;;;;;;11.93;8.40;;;20.00;12.60;;;;;;5092801;28;20208;-79
2021/07/08 05:36:45;;;;;;;12.23;8.23;;;19.90;11.60;;;;;;5074285;28;20196;-76
2021/07/08 05:39:10;;;;;;;14.67;8.70;;;19.90;12.20;;;;;;5073056;28;20581;-79
2021/07/08 05:41:36;;;;;;;9.50;7.70;;;19.90;15.30;;;;;;5073953;28;20176;-79
2021/07/08 05:44:02;;;;;;;12.87;7.73;;;19.80;16.30;;;;;;5073536;28;20535;-78
2021/07/08 05:46:27;;;;;;;9.97;7.50;;;19.70;21.50;;;;;;5071820;28;20575;-78
2021/07/08 05:48:54;;;;;;;11.27;8.23;;;19.80;20.80;;;;;;5073586;28;20170;-74
2021/07/08 05:51:19;;;;;;;10.17;7.53;;;19.70;19.30;;;;;;5077684;28;20269;-73
2021/07/08 05:53:45;;;;;;;11.43;8.23;;;19.80;19.40;;;;;;5092131;28;20173;-76
2021/07/08 05:56:11;;;;;;;11.00;8.10;;;20.00;16.90;;;;;;5090657;28;20166;-74
2021/07/08 05:58:37;;;;;;;13.47;8.73;;;20.00;16.70;;;;;;5084712;28;20727;-77
2021/07/08 06:01:03;;;;;;;11.10;7.80;;;20.20;9.80;;;;;;5073941;28;20261;-79
2021/07/08 06:03:28;;;;;;;11.87;8.50;;;20.40;8.40;;;;;;5087479;28;20221;-75
2021/07/08 06:05:54;;;;;;;15.77;8.60;;;20.40;1.00;;;;;;5092257;28;20214;-77
2021/07/08 06:08:20;;;;;;;12.93;8.57;;;20.40;1.00;;;;;;5082637;28;20538;-75
2021/07/08 06:10:45;;;;;;;14.97;8.90;;;20.30;1.00;;;;;;5073154;28;20182;-78
2021/07/08 06:13:11;;;;;;;12.23;8.47;;;20.20;1.40;;;;;;5073108;28;20167;-78
2021/07/08 06:15:38;;;;;;;15.07;8.23;;;20.10;3.70;;;;;;5072693;28;20632;-79
2021/07/08 06:18:09;;;;;;;14.50;7.63;;;20.10;1.00;;;;;;5066739;28;20188;-76
2021/07/08 06:20:35;;;;;;;13.23;7.87;;;20.20;1.00;;;;;;5063782;28;20182;-76
2021/07/08 06:23:01;;;;;;;13.53;9.07;;;20.20;1.00;;;;;;5045791;28;20189;-73
2021/07/08 06:25:29;;;;;;;11.90;8.27;;;20.30;1.00;;;;;;5048482;28;20258;-75
2021/07/08 06:27:55;;;;;;;15.43;8.83;;;20.30;1.00;;;;;;5050906;28;20629;-74
2021/07/08 06:30:21;;;;;;;15.77;8.37;;;20.20;1.00;;;;;;5052433;28;20180;-79
2021/07/08 06:32:47;;;;;;;13.30;7.93;;;20.00;5.60;;;;;;5045327;28;20990;-73
2021/07/08 06:35:17;;;;;;;13.63;8.50;;;20.00;6.60;;;;;;5051795;28;20316;-76
2021/07/08 06:37:45;;;;;;;12.53;8.03;;;20.20;1.80;;;;;;5051685;28;20185;-74
2021/07/08 06:40:14;;;;;;;12.70;7.73;;;20.30;1.00;;;;;;5052380;28;20182;-76
2021/07/08 06:42:40;;;;;;;12.87;7.60;;;20.40;1.00;;;;;;5052890;28;20182;-75
2021/07/08 06:45:06;;;;;;;16.73;7.90;;;20.30;1.00;;;;;;5050450;28;20264;-81
2021/07/08 06:47:39;;;;;;;13.97;8.43;;;20.40;1.00;;;;;;5073881;28;20198;-76
2021/07/08 06:50:09;;;;;;;20.63;8.37;;;20.50;1.00;;;;;;5080030;28;20166;-79
2021/07/08 06:52:35;;;;;;;16.43;9.53;;;20.50;1.00;;;;;;5065349;28;20173;-77
2021/07/08 06:55:00;;;;;;;16.10;8.67;;;20.60;1.00;;;;;;5052347;28;20169;-77
2021/07/08 06:57:26;;;;;;;17.30;8.90;;;20.60;1.00;;;;;;5053146;28;20204;-79
2021/07/08 06:59:52;;;;;;;14.50;8.40;;;20.60;1.00;;;;;;5055584;28;20165;-75
2021/07/08 07:02:17;;;;;;;14.93;8.00;;;20.50;1.00;;;;;;5074512;28;20187;-77
2021/07/08 07:04:43;;;;;;;12.00;8.27;;;20.60;1.00;;;;;;5074288;28;20554;-76
2021/07/08 07:07:09;;;;;;;13.40;8.53;;;20.50;1.00;;;;;;5071097;28;20294;-78
2021/07/08 07:09:34;;;;;;;15.63;8.37;;;20.50;1.00;;;;;;5074999;28;20204;-77
2021/07/08 07:12:00;;;;;;;11.00;7.70;;;20.50;1.00;;;;;;5077258;28;20195;-78
2021/07/08 07:14:26;;;;;;;11.67;7.73;;;20.50;1.00;;;;;;5073755;28;20192;-76
2021/07/08 07:16:51;;;;;;;15.53;7.07;;;20.60;1.00;;;;;;5077401;28;20168;-77
2021/07/08 07:19:17;;;;;;;12.67;7.13;;;20.70;1.00;;;;;;5082210;28;20192;-77
2021/07/08 07:21:42;;;;;;;10.17;6.80;;;20.80;1.00;;;;;;5076670;28;20173;-76
2021/07/08 07:24:08;;;;;;;12.70;7.60;;;20.90;1.00;;;;;;5076038;28;20252;-77
2021/07/08 07:26:37;;;;;;;15.10;7.90;;;21.00;1.00;;;;;;5066609;28;20301;-74
2021/07/08 07:29:02;;;;;;;12.40;6.83;;;21.00;1.00;;;;;;5055655;28;20230;-75
2021/07/08 07:31:28;;;;;;;17.73;8.97;;;21.00;1.00;;;;;;5056661;28;20196;-76
2021/07/08 07:33:54;;;;;;;10.17;6.90;;;21.10;1.00;;;;;;5055988;28;20185;-75
2021/07/08 07:36:19;;;;;;;10.67;7.13;;;21.00;1.00;;;;;;5056203;28;20194;-78
2021/07/08 07:38:47;;;;;;;10.37;7.00;;;21.20;1.00;;;;;;5056259;28;20175;-78
2021/07/08 07:41:13;;;;;;;12.00;6.67;;;21.20;1.00;;;;;;5054401;28;20173;-75
2021/07/08 07:43:39;;;;;;;10.60;7.03;;;21.30;1.00;;;;;;5053384;28;20178;-77
2021/07/08 07:46:05;;;;;;;12.80;6.87;;;21.30;1.00;;;;;;5054920;28;20604;-76
2021/07/08 07:48:31;;;;;;;13.03;7.13;;;21.60;1.00;;;;;;5054771;28;20188;-76
2021/07/08 07:50:56;;;;;;;13.63;7.50;;;21.70;1.00;;;;;;5053629;28;20230;-75
2021/07/08 07:53:22;;;;;;;15.53;7.50;;;21.70;1.00;;;;;;5054728;28;20251;-77
2021/07/08 07:55:49;;;;;;;16.80;8.63;;;21.80;1.00;;;;;;5054395;28;20687;-78
2021/07/08 07:58:15;;;;;;;14.00;7.80;;;21.80;1.00;;;;;;5054317;28;20178;-75
2021/07/08 08:00:41;;;;;;;13.23;8.40;;;21.40;1.00;;;;;;5054423;28;20173;-77
2021/07/08 08:03:06;;;;;;;15.00;7.93;;;21.20;1.00;;;;;;5055041;28;20170;-77
2021/07/08 08:10:44;;;;;;;11.87;7.30;;;20.90;1.00;;;;;;5054921;28;20191;-78
2021/07/08 08:13:11;;;;;;;10.70;8.17;;;21.20;1.00;;;;;;5054816;28;20267;-77
2021/07/08 08:15:37;;;;;;;18.17;7.70;;;21.30;1.00;;;;;;5052477;28;20604;-77
2021/07/08 08:18:03;;;;;;;9.47;7.10;;;21.30;1.00;;;;;;5040939;28;20191;-77
2021/07/08 08:20:30;;;;;;;12.53;6.87;;;21.50;1.00;;;;;;5054470;28;20176;-78
2021/07/08 08:22:57;;;;;;;13.73;7.60;;;21.60;1.00;;;;;;5055032;28;20192;-78
2021/07/08 08:25:23;;;;;;;11.30;7.47;;;21.40;1.00;;;;;;5054492;28;20199;-81
2021/07/08 08:27:49;;;;;;;11.63;7.53;;;21.30;1.00;;;;;;5054483;28;20310;-78
2021/07/08 08:30:15;;;;;;;12.30;7.50;;;21.10;1.00;;;;;;5054148;28;20176;-78
2021/07/08 08:32:42;;;;;;;13.57;7.80;;;21.20;1.00;;;;;;5053547;28;20179;-78
2021/07/08 08:35:09;;;;;;;12.27;6.77;;;21.40;1.00;;;;;;5036568;28;20206;-78
2021/07/08 08:37:35;;;;;;;12.77;6.80;;;21.60;1.00;;;;;;5035269;28;20176;-78
2021/07/08 08:40:01;;;;;;;11.60;7.30;;;21.70;1.00;;;;;;5052634;28;20538;-77
2021/07/08 08:42:27;;;;;;;10.50;6.80;;;21.80;1.00;;;;;;5054778;28;20179;-78
2021/07/08 08:44:54;;;;;;;10.97;7.27;;;21.80;1.00;;;;;;5055196;28;20618;-78
2021/07/08 08:47:20;;;;;;;12.00;7.80;;;21.60;1.00;;;;;;5055372;28;20207;-77
2021/07/08 08:49:46;;;;;;;13.70;7.30;;;21.50;1.00;;;;;;5055008;28;20620;-77
2021/07/08 08:52:13;;;;;;;9.67;6.90;;;21.60;1.00;;;;;;5061557;28;20176;-77
2021/07/08 08:54:42;;;;;;;14.67;7.33;;;21.70;1.00;;;;;;5075430;28;20740;-76
2021/07/08 08:57:09;;;;;;;11.63;7.33;;;22.00;1.00;;;;;;5063185;28;20184;-77
2021/07/08 08:59:35;;;;;;;13.93;6.63;;;22.40;1.00;;;;;;5036640;28;20174;-76
2021/07/08 09:02:12;;;;;;;9.90;6.80;;;22.60;1.00;;;;;;5045159;28;20185;-76
2021/07/08 09:04:38;;;;;;;10.03;5.77;;;22.40;1.00;;;;;;5038777;28;20208;-78
2021/07/08 09:07:27;;;;;;;9.07;6.63;;;22.50;1.00;;;;;;5045675;28;20256;-77
2021/07/08 09:09:56;;;;;;;10.70;6.07;;;22.50;1.00;;;;;;5042488;28;20224;-78
2021/07/08 09:12:23;;;;;;;8.80;5.47;;;22.40;1.00;;;;;;5043992;28;20174;-76
2021/07/08 09:15:08;;;;;;;10.67;5.67;;;22.40;1.00;;;;;;5040709;28;20197;-76
2021/07/08 09:17:40;;;;;;;8.17;5.20;;;22.60;1.00;;;;;;5041113;28;20552;-76
2021/07/08 09:20:09;;;;;;;10.90;5.30;;;22.70;1.00;;;;;;5042330;28;20602;-78
2021/07/08 09:22:35;;;;;;;7.83;4.57;;;22.90;1.00;;;;;;5045629;28;20209;-77
2021/07/08 09:25:21;;;;;;;7.50;4.87;;;22.80;99.90;;;;;;5045603;28;20643;-78
2021/07/08 09:27:48;;;;;;;10.43;5.13;;;22.90;99.90;;;;;;5042103;28;20171;-75
2021/07/08 09:30:24;;;;;;;8.77;4.10;;;23.10;99.90;;;;;;5042249;28;20631;-77
2021/07/08 09:32:51;;;;;;;8.53;5.20;;;23.10;99.90;;;;;;5042503;28;20178;-77
2021/07/08 09:35:39;;;;;;;11.50;5.47;;;23.00;99.90;;;;;;5041406;28;20253;-76
2021/07/08 09:38:12;;;;;;;10.23;4.93;;;22.90;99.90;;;;;;5035269;28;20174;-77
2021/07/08 09:40:40;;;;;;;13.03;5.67;;;22.70;99.90;;;;;;5032459;28;20183;-77
2021/07/08 09:43:06;;;;;;;10.53;4.70;;;22.60;99.90;;;;;;5032098;28;20172;-76
2021/07/08 09:45:45;;;;;;;9.87;5.20;;;22.70;99.90;;;;;;5032360;28;20684;-77
2021/07/08 09:48:20;;;;;;;9.43;4.33;;;22.80;99.90;;;;;;5039549;28;20173;-79
2021/07/08 09:50:47;;;;;;;9.40;4.90;;;22.90;99.90;;;;;;5052884;28;20169;-74
2021/07/08 09:53:21;;;;;;;12.00;4.27;;;23.00;99.90;;;;;;5066727;28;20249;-77
2021/07/08 09:56:10;;;;;;;9.60;4.50;;;22.90;1.00;;;;;;5072758;28;20167;-77
2021/07/08 09:58:50;;;;;;;8.23;4.07;;;22.70;80.40;;;;;;5072329;28;20169;-77
2021/07/08 10:01:16;;;;;;;5.17;3.50;;;22.80;1.00;;;;;;5063386;28;20181;-77
2021/07/08 10:03:44;;;;;;;7.17;3.03;;;23.00;1.00;;;;;;5052636;28;20178;-78
2021/07/08 10:06:11;;;;;;;5.37;3.10;;;23.10;1.00;;;;;;5053004;28;20212;-77
2021/07/08 10:08:37;;;;;;;6.13;3.50;;;23.40;1.00;;;;;;5054324;28;20655;-77
2021/07/08 10:11:04;;;;;;;6.37;3.20;;;23.70;99.90;;;;;;5054572;28;20182;-77
2021/07/08 10:13:32;;;;;;;7.30;3.40;;;23.90;99.90;;;;;;5065863;28;20182;-76
2021/07/08 10:16:02;;;;;;;6.53;3.57;;;24.10;1.00;;;;;;5070763;28;20174;-77
2021/07/08 10:18:31;;;;;;;8.20;3.27;;;23.90;1.00;;;;;;5047250;28;20270;-75
2021/07/08 10:20:58;;;;;;;6.93;3.17;;;23.50;1.00;;;;;;5032498;28;20221;-77
2021/07/08 10:23:26;;;;;;;5.63;2.80;;;23.30;99.90;;;;;;5032401;28;20194;-77
2021/07/08 10:25:52;;;;;;;4.37;2.57;;;23.30;99.90;;;;;;5041806;28;20228;-77
2021/07/08 10:28:19;;;;;;;6.17;2.90;;;23.30;1.00;;;;;;5052810;28;20209;-77
2021/07/08 10:30:46;;;;;;;7.03;3.07;;;23.00;1.00;;;;;;5053143;28;20162;-77
2021/07/08 10:33:11;;;;;;;5.60;2.93;;;23.30;99.90;;;;;;5053044;28;20208;-77
2021/07/08 10:35:48;;;;;;;8.63;3.57;;;23.20;1.00;;;;;;5051003;28;20676;-75
2021/07/08 10:38:26;;;;;;;5.30;2.87;;;23.30;1.00;;;;;;5052327;28;20656;-78
2021/07/08 10:40:53;;;;;;;6.43;2.60;;;23.20;1.00;;;;;;5052724;28;20239;-76
2021/07/08 10:43:39;;;;;;;8.80;4.37;;;23.30;1.00;;;;;;5052590;28;20253;-77
2021/07/08 10:46:13;;;;;;;10.57;4.50;;;23.20;99.90;;;;;;5055040;28;20739;-74
2021/07/08 10:48:47;;;;;;;8.23;4.53;;;23.00;22.20;;;;;;5066666;28;20233;-75
2021/07/08 10:51:32;;;;;;;8.13;4.77;;;23.00;99.90;;;;;;5061007;28;20178;-75
2021/07/08 10:53:58;;;;;;;9.40;4.30;;;22.70;99.90;;;;;;5037159;28;20177;-78
2021/07/08 10:56:33;;;;;;;9.37;4.50;;;22.90;99.90;;;;;;5037278;28;20168;-77
2021/07/08 10:59:12;;;;;;;9.23;5.10;;;23.00;1.00;;;;;;5037015;28;20173;-75
2021/07/08 11:01:43;;;;;;;8.77;4.43;;;23.10;1.00;;;;;;5036883;28;20649;-77
2021/07/08 11:04:11;;;;;;;8.80;4.40;;;23.40;99.90;;;;;;5036538;28;20180;-76
2021/07/08 11:06:39;;;;;;;8.10;4.87;;;23.50;1.00;;;;;;5036687;28;20569;-78
2021/07/08 11:09:11;;;;;;;9.13;4.80;;;23.60;1.00;;;;;;5036579;28;20222;-76
2021/07/08 11:11:46;;;;;;;7.90;5.00;;;23.50;1.00;;;;;;5036940;28;20179;-76
2021/07/08 11:14:14;;;;;;;7.40;4.43;;;23.60;17.00;;;;;;5041041;28;20175;-76
2021/07/08 11:16:45;;;;;;;10.43;4.40;;;23.60;1.00;;;;;;5041908;28;20183;-78
2021/07/08 11:19:16;;;;;;;9.07;4.33;;;23.70;99.90;;;;;;5054412;28;20549;-75
2021/07/08 11:21:53;;;;;;;8.53;4.20;;;23.90;1.00;;;;;;5057766;28;20175;-77
2021/07/08 11:24:23;;;;;;;5.13;3.43;;;24.30;1.00;;;;;;5056536;28;20623;-76
2021/07/08 11:26:59;;;;;;;6.50;3.57;;;24.40;99.90;;;;;;5055938;28;20224;-76
2021/07/08 11:29:51;;;;;;;6.27;3.47;;;24.60;99.90;;;;;;5055474;28;20214;-77
2021/07/08 11:32:26;;;;;;;7.83;4.00;;;24.50;99.90;;;;;;5055454;28;20174;-76
2021/07/08 11:34:57;;;;;;;7.77;3.60;;;24.40;1.00;;;;;;5054458;28;20167;-77
2021/07/08 11:37:39;;;;;;;5.67;3.43;;;24.40;1.00;;;;;;5059470;28;20197;-79
2021/07/08 11:40:07;;;;;;;5.37;2.67;;;24.50;1.00;;;;;;5062048;28;20222;-77
2021/07/08 11:42:34;;;;;;;4.03;2.27;;;24.70;99.90;;;;;;5062024;28;20628;-78
2021/07/08 11:45:09;;;;;;;3.90;1.90;;;24.50;1.00;;;;;;5060709;28;20229;-76
2021/07/08 11:47:42;;;;;;;3.27;1.77;;;24.40;1.00;;;;;;5060291;28;20637;-76
2021/07/08 11:50:17;;;;;;;5.37;2.10;;;24.40;1.00;;;;;;5054409;28;20298;-79
2021/07/08 11:52:44;;;;;;;3.90;2.23;;;24.40;1.00;;;;;;5065290;28;20179;-77
2021/07/08 11:55:11;;;;;;;4.80;2.33;;;24.40;88.80;;;;;;5075344;28;20176;-79
2021/07/08 11:57:54;;;;;;;3.23;2.10;;;24.40;99.90;;;;;;5075294;28;20164;-75
2021/07/08 12:00:49;;;;;;;5.00;1.87;;;24.50;99.90;;;;;;5075221;28;20639;-77
2021/07/08 12:03:30;;;;;;;3.37;2.17;;;24.40;1.00;;;;;;5073589;28;20174;-77
2021/07/08 12:05:58;;;;;;;2.90;1.83;;;24.20;99.90;;;;;;5074849;28;20198;-78
2021/07/08 12:08:29;;;;;;;3.87;2.40;;;24.30;99.90;;;;;;5074720;28;20197;-78
2021/07/08 12:10:57;;;;;;;4.63;2.20;;;24.50;99.90;;;;;;5074619;28;20218;-78
2021/07/08 12:13:23;;;;;;;6.13;2.67;;;24.40;99.90;;;;;;5060862;28;20243;-78
2021/07/08 12:15:48;;;;;;;4.43;2.80;;;24.20;99.90;;;;;;5054781;28;20228;-77
2021/07/08 12:18:14;;;;;;;10.27;3.70;;;24.20;1.00;;;;;;5053619;28;20269;-76
2021/07/08 12:20:47;;;;;;;7.30;4.00;;;24.20;99.90;;;;;;5054345;28;20555;-77
2021/07/08 12:23:15;;;;;;;9.37;3.77;;;24.20;99.90;;;;;;5054690;28;20185;-77
2021/07/08 12:25:41;;;;;;;6.00;4.03;;;24.00;1.00;;;;;;5054559;28;20193;-75
2021/07/08 12:28:07;;;;;;;7.90;3.87;;;23.70;99.90;;;;;;5055057;28;20686;-76
2021/07/08 12:30:33;;;;;;;7.67;4.17;;;23.40;1.00;;;;;;5053706;28;20252;-79
2021/07/08 12:33:04;;;;;;;10.43;4.50;;;23.10;99.90;;;;;;5053871;28;20256;-77
2021/07/08 12:35:41;;;;;;;10.23;4.10;;;23.10;99.90;;;;;;5053813;28;20196;-76
2021/07/08 12:38:07;;;;;;;6.77;3.73;;;23.00;76.90;;;;;;5054034;28;20172;-78
2021/07/08 12:40:34;;;;;;;7.97;3.80;;;23.30;80.10;;;;;;5053526;28;20173;-79
2021/07/08 12:43:06;;;;;;;7.90;4.10;;;23.40;1.00;;;;;;5054386;28;20172;-76
2021/07/08 12:45:33;;;;;;;6.30;3.97;;;23.60;1.00;;;;;;5053269;28;20200;-79
2021/07/08 12:48:01;;;;;;;5.93;3.90;;;23.50;99.90;;;;;;5052305;28;20625;-80
2021/07/08 12:50:30;;;;;;;5.67;3.37;;;23.50;1.00;;;;;;5053929;28;20802;-74
2021/07/08 12:52:58;;;;;;;8.10;4.13;;;23.50;1.00;;;;;;5054013;28;20169;-78
2021/07/08 12:55:38;;;;;;;6.33;4.17;;;23.70;99.90;;;;;;5054387;28;20162;-80